sensor_id;sensor_type;location;lat;lon;timestamp;pressure;altitude;pressure_sealevel;temperature;humidity
75656;BME280;64252;51.094;13.714;2022-12-29T00:01:51;99844.66;;;7.86;70.99
75656;BME280;64252;51.094;13.714;2022-12-29T00:04:17;99833.09;;;7.91;70.49
75656;BME280;64252;51.094;13.714;2022-12-29T00:06:43;99835.06;;;7.87;70.52
75656;BME280;64252;51.094;13.714;2022-12-29T00:09:11;99835.19;;;7.98;69.41
75656;BME280;64252;51.094;13.714;2022-12-29T00:11:37;99833.91;;;7.92;71.36
75656;BME280;64252;51.094;13.714;2022-12-29T00:14:03;99827.06;;;7.89;70.51
75656;BME280;64252;51.094;13.714;2022-12-29T00:16:47;99828.59;;;7.83;71.04
75656;BME280;64252;51.094;13.714;2022-12-29T00:19:13;99824.97;;;7.83;70.93
75656;BME280;64252;51.094;13.714;2022-12-29T00:21:58;99841.44;;;7.84;71.16
75656;BME280;64252;51.094;13.714;2022-12-29T00:24:43;99821.16;;;8.02;69.76
75656;BME280;64252;51.094;13.714;2022-12-29T00:27:19;99820.31;;;7.98;71.09
75656;BME280;64252;51.094;13.714;2022-12-29T00:30:08;99802.31;;;8.06;70.24
75656;BME280;64252;51.094;13.714;2022-12-29T00:32:52;99796.69;;;8.06;70.56
75656;BME280;64252;51.094;13.714;2022-12-29T00:35:57;99790.31;;;8.09;70.41
75656;BME280;64252;51.094;13.714;2022-12-29T00:38:24;99797.56;;;8.10;69.90
75656;BME280;64252;51.094;13.714;2022-12-29T00:41:08;99813.28;;;8.18;70.22
75656;BME280;64252;51.094;13.714;2022-12-29T00:43:52;99800.91;;;8.26;70.33
75656;BME280;64252;51.094;13.714;2022-12-29T00:46:40;99800.59;;;8.34;70.04
75656;BME280;64252;51.094;13.714;2022-12-29T00:49:07;99781.75;;;8.38;69.99
75656;BME280;64252;51.094;13.714;2022-12-29T00:51:53;99778.56;;;8.40;69.76
75656;BME280;64252;51.094;13.714;2022-12-29T00:54:19;99781.06;;;8.52;70.00
75656;BME280;64252;51.094;13.714;2022-12-29T00:56:49;99772.53;;;8.42;71.15
75656;BME280;64252;51.094;13.714;2022-12-29T00:59:16;99782.56;;;8.39;71.55
75656;BME280;64252;51.094;13.714;2022-12-29T01:01:43;99778.50;;;8.33;71.89
75656;BME280;64252;51.094;13.714;2022-12-29T01:04:10;99773.66;;;8.30;72.25
75656;BME280;64252;51.094;13.714;2022-12-29T01:06:36;99776.88;;;8.32;72.82
75656;BME280;64252;51.094;13.714;2022-12-29T01:09:03;99770.34;;;8.24;74.66
75656;BME280;64252;51.094;13.714;2022-12-29T01:11:49;99788.81;;;8.22;73.80
75656;BME280;64252;51.094;13.714;2022-12-29T01:14:15;99785.56;;;8.20;74.87
75656;BME280;64252;51.094;13.714;2022-12-29T01:16:42;99787.97;;;8.18;75.38
75656;BME280;64252;51.094;13.714;2022-12-29T01:19:08;99787.16;;;8.14;75.56
75656;BME280;64252;51.094;13.714;2022-12-29T01:21:33;99788.69;;;8.08;75.66
75656;BME280;64252;51.094;13.714;2022-12-29T01:23:59;99796.69;;;8.06;76.38
75656;BME280;64252;51.094;13.714;2022-12-29T01:26:25;99792.78;;;8.14;75.82
75656;BME280;64252;51.094;13.714;2022-12-29T01:28:51;99789.25;;;8.24;75.22
75656;BME280;64252;51.094;13.714;2022-12-29T01:31:17;99782.75;;;8.20;76.00
75656;BME280;64252;51.094;13.714;2022-12-29T01:33:43;99783.19;;;8.22;75.24
75656;BME280;64252;51.094;13.714;2022-12-29T01:36:12;99789.59;;;8.19;76.00
75656;BME280;64252;51.094;13.714;2022-12-29T01:38:38;99791.19;;;8.20;75.43
75656;BME280;64252;51.094;13.714;2022-12-29T01:41:06;99787.19;;;8.21;75.30
75656;BME280;64252;51.094;13.714;2022-12-29T01:44:39;99794.09;;;8.27;75.77
75656;BME280;64252;51.094;13.714;2022-12-29T01:46:51;99790.38;;;8.19;76.30
75656;BME280;64252;51.094;13.714;2022-12-29T01:49:20;99778.31;;;8.15;78.09
75656;BME280;64252;51.094;13.714;2022-12-29T01:51:57;99773.91;;;8.18;77.40
75656;BME280;64252;51.094;13.714;2022-12-29T01:56:57;99774.94;;;7.99;79.09
75656;BME280;64252;51.094;13.714;2022-12-29T01:59:30;99773.31;;;7.94;80.03
75656;BME280;64252;51.094;13.714;2022-12-29T02:01:56;99769.69;;;7.98;81.72
75656;BME280;64252;51.094;13.714;2022-12-29T02:04:23;99773.31;;;7.94;80.69
75656;BME280;64252;51.094;13.714;2022-12-29T02:06:53;99767.69;;;7.94;80.59
75656;BME280;64252;51.094;13.714;2022-12-29T02:09:21;99766.78;;;7.87;81.32
75656;BME280;64252;51.094;13.714;2022-12-29T02:11:50;99757.16;;;7.88;80.31
75656;BME280;64252;51.094;13.714;2022-12-29T02:14:17;99753.16;;;7.89;80.69
75656;BME280;64252;51.094;13.714;2022-12-29T02:25:40;99754.03;;;7.97;79.40
75656;BME280;64252;51.094;13.714;2022-12-29T02:37:03;99730.00;;;8.03;80.49
75656;BME280;64252;51.094;13.714;2022-12-29T02:40:03;99737.69;;;8.09;79.40
75656;BME280;64252;51.094;13.714;2022-12-29T02:43:05;99720.50;;;8.18;79.07
75656;BME280;64252;51.094;13.714;2022-12-29T02:48:29;99723.28;;;8.18;80.22
75656;BME280;64252;51.094;13.714;2022-12-29T02:51:07;99726.91;;;8.18;79.77
75656;BME280;64252;51.094;13.714;2022-12-29T02:53:35;99729.53;;;8.41;77.44
75656;BME280;64252;51.094;13.714;2022-12-29T02:56:21;99722.28;;;8.40;76.93
75656;BME280;64252;51.094;13.714;2022-12-29T02:58:47;99724.66;;;8.34;77.66
75656;BME280;64252;51.094;13.714;2022-12-29T03:10:07;99718.97;;;8.27;77.83
75656;BME280;64252;51.094;13.714;2022-12-29T03:12:48;99721.81;;;8.31;77.69
75656;BME280;64252;51.094;13.714;2022-12-29T03:21:37;99715.09;;;8.46;77.35
75656;BME280;64252;51.094;13.714;2022-12-29T03:24:28;99705.16;;;8.66;75.35
75656;BME280;64252;51.094;13.714;2022-12-29T03:26:59;99704.03;;;8.71;76.53
75656;BME280;64252;51.094;13.714;2022-12-29T03:29:33;99699.16;;;8.71;76.16
75656;BME280;64252;51.094;13.714;2022-12-29T03:32:04;99692.78;;;8.81;75.32
75656;BME280;64252;51.094;13.714;2022-12-29T03:34:31;99702.94;;;8.97;74.78
75656;BME280;64252;51.094;13.714;2022-12-29T03:37:06;99694.47;;;8.93;74.99
75656;BME280;64252;51.094;13.714;2022-12-29T03:39:33;99690.44;;;8.91;75.35
75656;BME280;64252;51.094;13.714;2022-12-29T03:42:02;99693.25;;;8.91;75.84
75656;BME280;64252;51.094;13.714;2022-12-29T03:44:35;99685.22;;;8.89;75.20
75656;BME280;64252;51.094;13.714;2022-12-29T03:47:03;99688.47;;;9.02;74.34
75656;BME280;64252;51.094;13.714;2022-12-29T03:49:29;99680.03;;;8.98;74.58
75656;BME280;64252;51.094;13.714;2022-12-29T03:51:55;99683.25;;;9.04;74.41
75656;BME280;64252;51.094;13.714;2022-12-29T03:54:23;99681.25;;;9.08;73.57
75656;BME280;64252;51.094;13.714;2022-12-29T03:56:48;99683.31;;;9.18;73.56
75656;BME280;64252;51.094;13.714;2022-12-29T03:59:19;99673.63;;;9.12;73.91
75656;BME280;64252;51.094;13.714;2022-12-29T04:01:45;99670.44;;;9.17;74.28
75656;BME280;64252;51.094;13.714;2022-12-29T04:04:12;99676.13;;;9.38;72.02
75656;BME280;64252;51.094;13.714;2022-12-29T04:06:38;99676.16;;;9.52;71.65
75656;BME280;64252;51.094;13.714;2022-12-29T04:09:06;99670.47;;;9.42;72.27
75656;BME280;64252;51.094;13.714;2022-12-29T04:11:37;99667.25;;;9.33;73.10
75656;BME280;64252;51.094;13.714;2022-12-29T04:14:03;99671.25;;;9.28;73.33
75656;BME280;64252;51.094;13.714;2022-12-29T04:16:30;99673.25;;;9.27;72.60
75656;BME280;64252;51.094;13.714;2022-12-29T04:18:56;99678.50;;;9.25;73.13
75656;BME280;64252;51.094;13.714;2022-12-29T04:21:22;99675.31;;;9.27;73.24
75656;BME280;64252;51.094;13.714;2022-12-29T04:23:47;99670.47;;;9.31;72.81
75656;BME280;64252;51.094;13.714;2022-12-29T04:26:15;99680.09;;;9.23;73.76
75656;BME280;64252;51.094;13.714;2022-12-29T04:28:53;99671.63;;;9.16;73.68
75656;BME280;64252;51.094;13.714;2022-12-29T04:31:33;99682.84;;;9.09;74.30
75656;BME280;64252;51.094;13.714;2022-12-29T04:33:59;99677.63;;;9.04;74.86
75656;BME280;64252;51.094;13.714;2022-12-29T04:36:26;99670.00;;;9.11;75.03
75656;BME280;64252;51.094;13.714;2022-12-29T04:38:52;99666.75;;;9.06;75.51
75656;BME280;64252;51.094;13.714;2022-12-29T04:41:18;99672.00;;;9.07;75.10
75656;BME280;64252;51.094;13.714;2022-12-29T04:43:43;99676.81;;;9.07;74.49
75656;BME280;64252;51.094;13.714;2022-12-29T04:46:15;99679.22;;;9.05;74.89
75656;BME280;64252;51.094;13.714;2022-12-29T04:49:00;99676.00;;;9.03;75.30
75656;BME280;64252;51.094;13.714;2022-12-29T04:51:38;99663.13;;;8.98;75.02
75656;BME280;64252;51.094;13.714;2022-12-29T04:54:06;99676.38;;;8.98;75.79
75656;BME280;64252;51.094;13.714;2022-12-29T04:56:32;99679.19;;;8.94;77.04
75656;BME280;64252;51.094;13.714;2022-12-29T04:58:58;99684.41;;;8.89;78.00
75656;BME280;64252;51.094;13.714;2022-12-29T05:01:23;99682.41;;;8.96;79.43
75656;BME280;64252;51.094;13.714;2022-12-29T05:03:50;99679.97;;;8.95;78.61
75656;BME280;64252;51.094;13.714;2022-12-29T05:06:16;99673.63;;;9.12;77.61
75656;BME280;64252;51.094;13.714;2022-12-29T05:08:42;99682.84;;;9.09;79.13
75656;BME280;64252;51.094;13.714;2022-12-29T05:11:09;99684.91;;;9.08;79.57
75656;BME280;64252;51.094;13.714;2022-12-29T05:13:36;99692.19;;;9.27;77.55
75656;BME280;64252;51.094;13.714;2022-12-29T05:16:02;99688.16;;;9.28;77.50
75656;BME280;64252;51.094;13.714;2022-12-29T05:18:27;99689.81;;;9.36;76.34
75656;BME280;64252;51.094;13.714;2022-12-29T05:20:53;99682.59;;;9.49;76.36
75656;BME280;64252;51.094;13.714;2022-12-29T05:23:20;99683.38;;;9.43;76.54
75656;BME280;64252;51.094;13.714;2022-12-29T05:25:51;99685.03;;;9.61;76.77
75656;BME280;64252;51.094;13.714;2022-12-29T05:28:40;99680.63;;;9.60;75.74
75656;BME280;64252;51.094;13.714;2022-12-29T05:31:11;99689.84;;;9.54;76.11
75656;BME280;64252;51.094;13.714;2022-12-29T05:33:37;99687.44;;;9.49;77.20
75656;BME280;64252;51.094;13.714;2022-12-29T05:36:07;99679.38;;;9.54;76.12
75656;BME280;64252;51.094;13.714;2022-12-29T05:38:33;99685.03;;;9.54;76.36
75656;BME280;64252;51.094;13.714;2022-12-29T05:40:59;99693.09;;;9.59;75.24
75656;BME280;64252;51.094;13.714;2022-12-29T05:43:43;99694.28;;;9.58;75.80
75656;BME280;64252;51.094;13.714;2022-12-29T05:46:27;99686.25;;;9.60;76.49
75656;BME280;64252;51.094;13.714;2022-12-29T05:49:05;99697.09;;;9.55;75.40
75656;BME280;64252;51.094;13.714;2022-12-29T05:51:37;99689.03;;;9.46;76.85
75656;BME280;64252;51.094;13.714;2022-12-29T05:54:03;99685.00;;;9.47;76.40
75656;BME280;64252;51.094;13.714;2022-12-29T05:56:28;99692.25;;;9.41;76.05
75656;BME280;64252;51.094;13.714;2022-12-29T05:58:57;99694.22;;;9.37;76.78
75656;BME280;64252;51.094;13.714;2022-12-29T06:01:23;99695.03;;;9.27;77.54
75656;BME280;64252;51.094;13.714;2022-12-29T06:03:49;99699.81;;;9.23;77.70
75656;BME280;64252;51.094;13.714;2022-12-29T06:06:16;99687.34;;;9.20;76.91
75656;BME280;64252;51.094;13.714;2022-12-29T06:08:42;99701.81;;;9.19;78.13
75656;BME280;64252;51.094;13.714;2022-12-29T06:11:08;99700.28;;;9.32;77.48
75656;BME280;64252;51.094;13.714;2022-12-29T06:13:34;99694.59;;;9.25;77.06
75656;BME280;64252;51.094;13.714;2022-12-29T06:16:00;99696.19;;;9.19;77.39
75656;BME280;64252;51.094;13.714;2022-12-29T06:18:27;99682.91;;;9.16;77.91
75656;BME280;64252;51.094;13.714;2022-12-29T06:20:53;99690.16;;;9.24;77.34
75656;BME280;64252;51.094;13.714;2022-12-29T06:23:18;99686.53;;;9.23;77.68
75656;BME280;64252;51.094;13.714;2022-12-29T06:25:46;99686.56;;;9.27;77.11
75656;BME280;64252;51.094;13.714;2022-12-29T06:28:12;99679.69;;;9.28;77.32
75656;BME280;64252;51.094;13.714;2022-12-29T06:30:38;99680.13;;;9.27;77.58
75656;BME280;64252;51.094;13.714;2022-12-29T06:33:03;99674.50;;;9.34;77.01
75656;BME280;64252;51.094;13.714;2022-12-29T06:35:29;99677.78;;;9.46;75.59
75656;BME280;64252;51.094;13.714;2022-12-29T06:37:55;99664.06;;;9.48;76.05
75656;BME280;64252;51.094;13.714;2022-12-29T06:40:20;99668.13;;;9.54;75.30
75656;BME280;64252;51.094;13.714;2022-12-29T06:43:05;99658.03;;;9.46;75.13
75656;BME280;64252;51.094;13.714;2022-12-29T06:45:56;99665.66;;;9.42;76.22
75656;BME280;64252;51.094;13.714;2022-12-29T06:48:22;99676.13;;;9.31;76.91
75656;BME280;64252;51.094;13.714;2022-12-29T06:50:47;99675.66;;;9.15;77.02
75656;BME280;64252;51.094;13.714;2022-12-29T06:53:13;99680.88;;;9.13;77.11
75656;BME280;64252;51.094;13.714;2022-12-29T06:55:38;99684.84;;;9.01;77.86
75656;BME280;64252;51.094;13.714;2022-12-29T06:58:04;99681.97;;;8.87;77.75
75656;BME280;64252;51.094;13.714;2022-12-29T07:00:31;99686.34;;;8.74;78.28
75656;BME280;64252;51.094;13.714;2022-12-29T07:03:04;99677.38;;;8.54;78.52
75656;BME280;64252;51.094;13.714;2022-12-29T07:05:29;99681.44;;;8.60;78.28
75656;BME280;64252;51.094;13.714;2022-12-29T07:07:58;99687.00;;;8.50;79.19
75656;BME280;64252;51.094;13.714;2022-12-29T07:10:24;99675.28;;;8.44;78.57
75656;BME280;64252;51.094;13.714;2022-12-29T07:12:49;99695.66;;;8.27;79.49
75656;BME280;64252;51.094;13.714;2022-12-29T07:15:15;99688.31;;;8.15;79.76
75656;BME280;64252;51.094;13.714;2022-12-29T07:17:42;99696.69;;;8.05;80.41
75656;BME280;64252;51.094;13.714;2022-12-29T07:20:09;99705.16;;;8.08;79.71
75656;BME280;64252;51.094;13.714;2022-12-29T07:22:35;99699.66;;;8.26;79.72
75656;BME280;64252;51.094;13.714;2022-12-29T07:25:00;99698.03;;;8.25;79.28
75656;BME280;64252;51.094;13.714;2022-12-29T07:27:26;99693.19;;;8.22;79.99
75656;BME280;64252;51.094;13.714;2022-12-29T07:29:51;99712.13;;;8.28;79.29
75656;BME280;64252;51.094;13.714;2022-12-29T07:32:18;99703.38;;;8.37;79.24
75656;BME280;64252;51.094;13.714;2022-12-29T07:34:44;99714.75;;;8.51;78.99
75656;BME280;64252;51.094;13.714;2022-12-29T07:37:14;99700.88;;;8.90;78.09
75656;BME280;64252;51.094;13.714;2022-12-29T07:39:40;99684.09;;;9.08;76.20
75656;BME280;64252;51.094;13.714;2022-12-29T07:42:05;99684.47;;;9.06;76.41
75656;BME280;64252;51.094;13.714;2022-12-29T07:44:39;99684.03;;;8.97;76.49
75656;BME280;64252;51.094;13.714;2022-12-29T07:47:23;99686.84;;;9.01;77.03
75656;BME280;64252;51.094;13.714;2022-12-29T07:49:48;99682.03;;;8.98;76.98
75656;BME280;64252;51.094;13.714;2022-12-29T07:52:14;99689.66;;;9.01;76.79
75656;BME280;64252;51.094;13.714;2022-12-29T07:54:39;99700.66;;;9.27;75.65
75656;BME280;64252;51.094;13.714;2022-12-29T07:57:06;99709.94;;;9.38;75.11
75656;BME280;64252;51.094;13.714;2022-12-29T07:59:31;99698.66;;;9.35;75.43
75656;BME280;64252;51.094;13.714;2022-12-29T08:01:57;99701.84;;;9.26;76.29
75656;BME280;64252;51.094;13.714;2022-12-29T08:04:22;99694.59;;;9.21;76.03
75656;BME280;64252;51.094;13.714;2022-12-29T08:06:48;99698.63;;;9.24;76.15
75656;BME280;64252;51.094;13.714;2022-12-29T08:09:14;99697.84;;;9.31;76.02
75656;BME280;64252;51.094;13.714;2022-12-29T08:11:39;99711.56;;;9.39;75.95
75656;BME280;64252;51.094;13.714;2022-12-29T08:14:06;99711.13;;;9.37;76.34
75656;BME280;64252;51.094;13.714;2022-12-29T08:16:32;99718.75;;;9.33;76.56
75656;BME280;64252;51.094;13.714;2022-12-29T08:18:57;99721.19;;;9.31;76.44
75656;BME280;64252;51.094;13.714;2022-12-29T08:21:24;99725.63;;;9.39;75.69
75656;BME280;64252;51.094;13.714;2022-12-29T08:23:50;99722.06;;;9.49;76.17
75656;BME280;64252;51.094;13.714;2022-12-29T08:26:15;99720.84;;;9.57;75.06
75656;BME280;64252;51.094;13.714;2022-12-29T08:28:41;99726.91;;;9.66;75.41
75656;BME280;64252;51.094;13.714;2022-12-29T08:31:09;99727.34;;;9.76;74.50
75656;BME280;64252;51.094;13.714;2022-12-29T08:33:35;99715.28;;;9.79;74.50
75656;BME280;64252;51.094;13.714;2022-12-29T08:36:04;99706.00;;;9.78;73.04
75656;BME280;64252;51.094;13.714;2022-12-29T08:38:30;99700.34;;;9.67;74.71
75656;BME280;64252;51.094;13.714;2022-12-29T08:40:57;99695.09;;;9.59;74.84
75656;BME280;64252;51.094;13.714;2022-12-29T08:43:24;99705.94;;;9.53;74.49
75656;BME280;64252;51.094;13.714;2022-12-29T08:45:50;99715.59;;;9.56;73.55
75656;BME280;64252;51.094;13.714;2022-12-29T08:48:16;99722.06;;;9.56;73.90
75656;BME280;64252;51.094;13.714;2022-12-29T08:50:45;99727.25;;;9.47;74.30
75656;BME280;64252;51.094;13.714;2022-12-29T08:53:11;99725.63;;;9.39;74.65
75656;BME280;64252;51.094;13.714;2022-12-29T08:55:37;99724.06;;;9.52;72.29
75656;BME280;64252;51.094;13.714;2022-12-29T08:58:02;99718.81;;;9.47;73.55
75656;BME280;64252;51.094;13.714;2022-12-29T09:00:28;99714.00;;;9.51;72.59
75656;BME280;64252;51.094;13.714;2022-12-29T09:02:57;99725.22;;;9.37;74.08
75656;BME280;64252;51.094;13.714;2022-12-29T09:05:23;99707.50;;;9.33;73.93
75656;BME280;64252;51.094;13.714;2022-12-29T09:07:49;99716.81;;;9.51;73.26
75656;BME280;64252;51.094;13.714;2022-12-29T09:10:14;99718.84;;;9.58;73.07
75656;BME280;64252;51.094;13.714;2022-12-29T09:12:40;99720.50;;;9.77;72.38
75656;BME280;64252;51.094;13.714;2022-12-29T09:15:06;99721.34;;;9.88;72.16
75656;BME280;64252;51.094;13.714;2022-12-29T09:17:32;99715.69;;;9.88;71.22
75656;BME280;64252;51.094;13.714;2022-12-29T09:20:16;99714.47;;;9.89;70.78
75656;BME280;64252;51.094;13.714;2022-12-29T09:22:43;99715.28;;;9.89;71.02
75656;BME280;64252;51.094;13.714;2022-12-29T09:25:10;99712.88;;;9.91;70.68
75656;BME280;64252;51.094;13.714;2022-12-29T09:27:36;99708.44;;;10.01;71.11
75656;BME280;64252;51.094;13.714;2022-12-29T09:30:07;99719.31;;;10.09;70.17
75656;BME280;64252;51.094;13.714;2022-12-29T09:32:34;99717.31;;;10.13;70.86
75656;BME280;64252;51.094;13.714;2022-12-29T09:35:00;99713.72;;;10.24;70.16
75656;BME280;64252;51.094;13.714;2022-12-29T09:37:26;99712.91;;;10.37;69.06
75656;BME280;64252;51.094;13.714;2022-12-29T09:39:51;99717.31;;;10.60;68.84
75656;BME280;64252;51.094;13.714;2022-12-29T09:45:36;99706.78;;;10.85;68.72
75656;BME280;64252;51.094;13.714;2022-12-29T09:48:03;99716.81;;;11.00;68.00
75656;BME280;64252;51.094;13.714;2022-12-29T09:50:35;99711.09;;;11.25;67.54
75656;BME280;64252;51.094;13.714;2022-12-29T09:53:14;99711.31;;;11.55;65.64
75656;BME280;64252;51.094;13.714;2022-12-29T09:55:55;99708.75;;;11.85;64.64
75656;BME280;64252;51.094;13.714;2022-12-29T10:04:08;99708.19;;;12.08;63.59
75656;BME280;64252;51.094;13.714;2022-12-29T10:15:09;99696.38;;;12.17;62.67
75656;BME280;64252;51.094;13.714;2022-12-29T10:20:33;99696.47;;;12.10;62.67
75656;BME280;64252;51.094;13.714;2022-12-29T10:25:47;99702.09;;;12.13;61.99
75656;BME280;64252;51.094;13.714;2022-12-29T10:28:35;99694.88;;;12.05;62.34
75656;BME280;64252;51.094;13.714;2022-12-29T10:31:06;99693.25;;;12.04;63.68
75656;BME280;64252;51.094;13.714;2022-12-29T10:33:39;99688.31;;;12.15;62.17
75656;BME280;64252;51.094;13.714;2022-12-29T10:36:17;99681.25;;;12.38;62.28
75656;BME280;64252;51.094;13.714;2022-12-29T10:39:06;99684.75;;;12.52;60.79
75656;BME280;64252;51.094;13.714;2022-12-29T10:41:46;99698.47;;;12.54;60.75
75656;BME280;64252;51.094;13.714;2022-12-29T10:44:17;99692.84;;;12.50;61.23
75656;BME280;64252;51.094;13.714;2022-12-29T10:46:44;99678.25;;;12.55;60.76
75656;BME280;64252;51.094;13.714;2022-12-29T10:49:18;99667.88;;;12.79;59.86
75656;BME280;64252;51.094;13.714;2022-12-29T10:51:48;99676.06;;;12.70;59.97
75656;BME280;64252;51.094;13.714;2022-12-29T10:54:25;99672.47;;;12.66;60.71
75656;BME280;64252;51.094;13.714;2022-12-29T10:56:54;99665.19;;;12.65;60.91
75656;BME280;64252;51.094;13.714;2022-12-29T10:59:27;99661.72;;;12.88;59.80
75656;BME280;64252;51.094;13.714;2022-12-29T11:04:35;99652.41;;;13.21;59.47
75656;BME280;64252;51.094;13.714;2022-12-29T11:07:08;99657.59;;;13.56;59.21
75656;BME280;64252;51.094;13.714;2022-12-29T11:09:37;99659.47;;;13.40;59.23
75656;BME280;64252;51.094;13.714;2022-12-29T11:12:23;99655.34;;;13.10;58.37
75656;BME280;64252;51.094;13.714;2022-12-29T11:15:11;99649.41;;;13.01;59.37
75656;BME280;64252;51.094;13.714;2022-12-29T11:17:50;99658.81;;;12.91;60.04
75656;BME280;64252;51.094;13.714;2022-12-29T11:23:20;99637.78;;;12.55;62.38
75656;BME280;64252;51.094;13.714;2022-12-29T11:28:33;99640.88;;;12.30;62.66
75656;BME280;64252;51.094;13.714;2022-12-29T11:31:01;99645.28;;;12.35;62.27
75656;BME280;64252;51.094;13.714;2022-12-29T11:33:31;99646.75;;;12.50;62.23
75656;BME280;64252;51.094;13.714;2022-12-29T11:35:59;99645.78;;;12.63;61.67
75656;BME280;64252;51.094;13.714;2022-12-29T11:38:36;99638.75;;;12.79;61.43
75656;BME280;64252;51.094;13.714;2022-12-29T11:41:05;99636.03;;;12.68;61.39
75656;BME280;64252;51.094;13.714;2022-12-29T11:43:37;99627.16;;;12.66;61.22
75656;BME280;64252;51.094;13.714;2022-12-29T11:46:04;99628.75;;;12.67;62.57
75656;BME280;64252;51.094;13.714;2022-12-29T11:48:38;99635.56;;;12.73;61.54
75656;BME280;64252;51.094;13.714;2022-12-29T11:51:05;99633.88;;;12.79;62.25
75656;BME280;64252;51.094;13.714;2022-12-29T11:56:11;99635.50;;;12.80;61.81
75656;BME280;64252;51.094;13.714;2022-12-29T11:58:38;99642.91;;;12.67;62.22
75656;BME280;64252;51.094;13.714;2022-12-29T12:01:36;99637.41;;;12.53;62.86
75656;BME280;64252;51.094;13.714;2022-12-29T12:04:08;99640.38;;;12.39;63.92
75656;BME280;64252;51.094;13.714;2022-12-29T12:06:43;99640.94;;;12.23;63.99
75656;BME280;64252;51.094;13.714;2022-12-29T12:12:03;99640.22;;;12.12;64.47
75656;BME280;64252;51.094;13.714;2022-12-29T12:14:55;99639.09;;;12.02;64.43
75656;BME280;64252;51.094;13.714;2022-12-29T12:17:53;99648.09;;;11.90;65.23
75656;BME280;64252;51.094;13.714;2022-12-29T12:26:16;99624.81;;;12.16;64.44
75656;BME280;64252;51.094;13.714;2022-12-29T12:28:55;99626.34;;;12.28;63.04
75656;BME280;64252;51.094;13.714;2022-12-29T12:34:01;99619.78;;;12.35;63.19
75656;BME280;64252;51.094;13.714;2022-12-29T12:39:23;99616.59;;;12.70;61.61
75656;BME280;64252;51.094;13.714;2022-12-29T12:44:56;99616.72;;;13.24;60.03
75656;BME280;64252;51.094;13.714;2022-12-29T12:50:15;99592.84;;;12.91;60.74
75656;BME280;64252;51.094;13.714;2022-12-29T12:53:26;99601.84;;;12.82;60.97
75656;BME280;64252;51.094;13.714;2022-12-29T13:02:20;99588.09;;;13.14;59.65
75656;BME280;64252;51.094;13.714;2022-12-29T13:05:13;99585.94;;;13.26;59.31
75656;BME280;64252;51.094;13.714;2022-12-29T13:10:42;99588.50;;;13.16;59.52
75656;BME280;64252;51.094;13.714;2022-12-29T13:13:37;99599.72;;;13.24;59.39
75656;BME280;64252;51.094;13.714;2022-12-29T13:16:13;99598.59;;;13.17;59.06
75656;BME280;64252;51.094;13.714;2022-12-29T13:23:54;99600.97;;;13.23;60.14
75656;BME280;64252;51.094;13.714;2022-12-29T13:26:43;99617.69;;;13.13;59.05
75656;BME280;64252;51.094;13.714;2022-12-29T13:29:17;99605.31;;;12.97;59.67
75656;BME280;64252;51.094;13.714;2022-12-29T13:34:25;99609.66;;;12.74;60.54
75656;BME280;64252;51.094;13.714;2022-12-29T13:36:58;99609.34;;;12.65;60.31
75656;BME280;64252;51.094;13.714;2022-12-29T13:39:48;99611.84;;;12.60;60.88
75656;BME280;64252;51.094;13.714;2022-12-29T13:42:17;99616.66;;;12.63;61.22
75656;BME280;64252;51.094;13.714;2022-12-29T13:44:59;99612.22;;;12.62;60.74
75656;BME280;64252;51.094;13.714;2022-12-29T13:47:39;99611.94;;;12.49;60.91
75656;BME280;64252;51.094;13.714;2022-12-29T13:50:14;99615.69;;;12.43;61.58
75656;BME280;64252;51.094;13.714;2022-12-29T13:53:22;99623.47;;;12.31;61.65
75656;BME280;64252;51.094;13.714;2022-12-29T13:56:18;99621.19;;;12.19;62.68
75656;BME280;64252;51.094;13.714;2022-12-29T13:59:24;99626.97;;;12.05;62.58
75656;BME280;64252;51.094;13.714;2022-12-29T14:01:58;99619.63;;;12.11;62.24
75656;BME280;64252;51.094;13.714;2022-12-29T14:04:28;99629.19;;;12.24;62.06
75656;BME280;64252;51.094;13.714;2022-12-29T14:07:11;99627.59;;;12.23;62.36
75656;BME280;64252;51.094;13.714;2022-12-29T14:12:30;99617.59;;;12.12;63.62
75656;BME280;64252;51.094;13.714;2022-12-29T14:15:21;99628.56;;;12.06;63.21
75656;BME280;64252;51.094;13.714;2022-12-29T14:18:14;99630.25;;;12.00;63.17
75656;BME280;64252;51.094;13.714;2022-12-29T14:21:08;99630.63;;;12.02;62.59
75656;BME280;64252;51.094;13.714;2022-12-29T14:23:41;99628.19;;;12.01;63.17
75656;BME280;64252;51.094;13.714;2022-12-29T14:28:37;99627.09;;;11.91;63.83
75656;BME280;64252;51.094;13.714;2022-12-29T14:36:53;99644.19;;;11.73;64.42
75656;BME280;64252;51.094;13.714;2022-12-29T14:43:29;99650.63;;;11.74;64.45
75656;BME280;64252;51.094;13.714;2022-12-29T14:45:59;99643.38;;;11.73;64.17
75656;BME280;64252;51.094;13.714;2022-12-29T14:48:43;99642.19;;;11.67;64.78
75656;BME280;64252;51.094;13.714;2022-12-29T14:51:45;99654.72;;;11.66;63.98
75656;BME280;64252;51.094;13.714;2022-12-29T14:57:00;99650.69;;;11.67;65.60
75656;BME280;64252;51.094;13.714;2022-12-29T14:59:28;99651.44;;;11.71;63.80
75656;BME280;64252;51.094;13.714;2022-12-29T15:01:55;99650.59;;;11.81;62.96
75656;BME280;64252;51.094;13.714;2022-12-29T15:04:25;99642.53;;;11.79;64.01
75656;BME280;64252;51.094;13.714;2022-12-29T15:06:52;99641.78;;;11.65;66.01
75656;BME280;64252;51.094;13.714;2022-12-29T15:09:30;99651.97;;;11.52;64.15
75656;BME280;64252;51.094;13.714;2022-12-29T15:12:01;99658.06;;;11.47;65.18
75656;BME280;64252;51.094;13.714;2022-12-29T15:14:38;99671.00;;;11.40;65.10
75656;BME280;64252;51.094;13.714;2022-12-29T15:19:49;99673.88;;;11.37;65.86
75656;BME280;64252;51.094;13.714;2022-12-29T15:22:15;99680.75;;;11.32;66.79
75656;BME280;64252;51.094;13.714;2022-12-29T15:24:44;99686.44;;;11.25;66.88
75656;BME280;64252;51.094;13.714;2022-12-29T15:27:14;99690.53;;;11.14;66.33
75656;BME280;64252;51.094;13.714;2022-12-29T15:29:45;99691.00;;;10.98;67.32
75656;BME280;64252;51.094;13.714;2022-12-29T15:32:22;99703.13;;;10.95;66.80